LRC610 MROC-MSLP
Flight info
| Callsign | LRC610 |
|---|---|
| Flight time | 0h 59m |
| Altitude | 37000 |
| Route | NANJO4U ULAPO DCT ALTEG UG436 AMUVO AMUVO2M |
| Aircraft | A20N/M-SDE2E3FGHIRWXY/LB1 |
Departure
| Time | 2026-05-05 21:31 |
|---|---|
| Airport | Juan Santamaría International Airport (MROC) |
Arrival
| Time | 2026-05-05 22:31 |
|---|---|
| Airport | El Salvador International Airport Saint Óscar Arnulfo Romero y Galdámez (MSLP) |
| Time | Latitude | Longitude | Altitude | Speed | Heading |
|---|---|---|---|---|---|
| 2026-05-05 21:06 | 9.99695 | -84.20563 | 3034 ft | 0 kts | 340° |
| 2026-05-05 21:20 | 9.99675 | -84.20556 | 3034 ft | 3 kts | 340° |
| 2026-05-05 21:20 | 9.99653 | -84.20547 | 3036 ft | 3 kts | 342° |
| 2026-05-05 21:21 | 9.99630 | -84.20544 | 3034 ft | 3 kts | 15° |
| 2026-05-05 21:21 | 9.99611 | -84.20555 | 3033 ft | 3 kts | 65° |
| 2026-05-05 21:21 | 9.99608 | -84.20563 | 3034 ft | 0 kts | 69° |
| 2026-05-05 21:26 | 9.99611 | -84.20554 | 3033 ft | 5 kts | 69° |
| 2026-05-05 21:26 | 9.99640 | -84.20479 | 3036 ft | 14 kts | 69° |
| 2026-05-05 21:26 | 9.99664 | -84.20415 | 3034 ft | 15 kts | 69° |
| 2026-05-05 21:26 | 9.99698 | -84.20320 | 3033 ft | 14 kts | 70° |
| 2026-05-05 21:27 | 9.99731 | -84.20231 | 3033 ft | 13 kts | 69° |
| 2026-05-05 21:27 | 9.99762 | -84.20150 | 3033 ft | 12 kts | 68° |
| 2026-05-05 21:27 | 9.99791 | -84.20075 | 3034 ft | 11 kts | 70° |
| 2026-05-05 21:27 | 9.99796 | -84.20033 | 3033 ft | 0 kts | 104° |
| 2026-05-05 21:29 | 9.99793 | -84.20023 | 3033 ft | 4 kts | 105° |
| 2026-05-05 21:29 | 9.99768 | -84.20003 | 3037 ft | 5 kts | 161° |
| 2026-05-05 21:29 | 9.99730 | -84.20011 | 3036 ft | 7 kts | 217° |
| 2026-05-05 21:29 | 9.99700 | -84.20054 | 3036 ft | 0 kts | 250° |
| 2026-05-05 21:30 | 9.99687 | -84.20091 | 3037 ft | 27 kts | 250° |
| 2026-05-05 21:30 | 9.99544 | -84.20481 | 3036 ft | 88 kts | 250° |
| 2026-05-05 21:31 | 9.99261 | -84.21234 | 2997 ft | 138 kts | 249° |
| 2026-05-05 21:31 | 9.98882 | -84.22252 | 3271 ft | 159 kts | 251° |
| 2026-05-05 21:31 | 9.98489 | -84.23337 | 3871 ft | 168 kts | 250° |
| 2026-05-05 21:31 | 9.98059 | -84.24400 | 4731 ft | 159 kts | 247° |
| 2026-05-05 21:32 | 9.97625 | -84.25446 | 5155 ft | 173 kts | 248° |
| 2026-05-05 21:32 | 9.97462 | -84.25836 | 5225 ft | 181 kts | 248° |
| 2026-05-05 21:32 | 9.97126 | -84.26652 | 5394 ft | 194 kts | 248° |
| 2026-05-05 21:32 | 9.96591 | -84.27993 | 5692 ft | 215 kts | 248° |
| 2026-05-05 21:33 | 9.96003 | -84.29487 | 5964 ft | 241 kts | 249° |
| 2026-05-05 21:33 | 9.95375 | -84.31161 | 6417 ft | 266 kts | 255° |
| 2026-05-05 21:33 | 9.95256 | -84.33074 | 6912 ft | 283 kts | 282° |
| 2026-05-05 21:33 | 9.96048 | -84.34903 | 7661 ft | 287 kts | 309° |
| 2026-05-05 21:34 | 9.97565 | -84.36199 | 8450 ft | 290 kts | 334° |
| 2026-05-05 21:34 | 9.99461 | -84.36710 | 9190 ft | 293 kts | 359° |
| 2026-05-05 21:34 | 10.01458 | -84.36456 | 9916 ft | 294 kts | 13° |
| 2026-05-05 21:34 | 10.03497 | -84.35977 | 10414 ft | 312 kts | 13° |
| 2026-05-05 21:35 | 10.05713 | -84.35599 | 10663 ft | 335 kts | 7° |
| 2026-05-05 21:35 | 10.08091 | -84.35419 | 11073 ft | 348 kts | 359° |
| 2026-05-05 21:35 | 10.10483 | -84.35847 | 11780 ft | 353 kts | 341° |
| 2026-05-05 21:35 | 10.12676 | -84.36987 | 12496 ft | 358 kts | 325° |
| 2026-05-05 21:36 | 10.14659 | -84.38543 | 12855 ft | 361 kts | 322° |
| 2026-05-05 21:36 | 10.16626 | -84.40127 | 12964 ft | 361 kts | 322° |
| 2026-05-05 21:36 | 10.18601 | -84.41717 | 12974 ft | 360 kts | 322° |
| 2026-05-05 21:36 | 10.20561 | -84.43300 | 12976 ft | 362 kts | 322° |
| 2026-05-05 21:37 | 10.22540 | -84.44887 | 12969 ft | 362 kts | 322° |
| 2026-05-05 21:37 | 10.24520 | -84.46460 | 12971 ft | 361 kts | 322° |
| 2026-05-05 21:37 | 10.26499 | -84.48030 | 12968 ft | 361 kts | 322° |
| 2026-05-05 21:37 | 10.28476 | -84.49604 | 12963 ft | 361 kts | 322° |
| 2026-05-05 21:38 | 10.30454 | -84.51180 | 12959 ft | 361 kts | 322° |
| 2026-05-05 21:38 | 10.32433 | -84.52758 | 12956 ft | 361 kts | 322° |
| 2026-05-05 21:38 | 10.34385 | -84.54314 | 12953 ft | 361 kts | 322° |
| 2026-05-05 21:38 | 10.36396 | -84.55913 | 13072 ft | 365 kts | 322° |
| 2026-05-05 21:39 | 10.38375 | -84.57486 | 13752 ft | 366 kts | 322° |
| 2026-05-05 21:39 | 10.40383 | -84.59083 | 14473 ft | 368 kts | 322° |
| 2026-05-05 21:39 | 10.42409 | -84.60695 | 15117 ft | 372 kts | 322° |
| 2026-05-05 21:39 | 10.44453 | -84.62323 | 15751 ft | 375 kts | 322° |
| 2026-05-05 21:40 | 10.46522 | -84.63971 | 16379 ft | 379 kts | 322° |
| 2026-05-05 21:40 | 10.48606 | -84.65632 | 16988 ft | 383 kts | 322° |
| 2026-05-05 21:40 | 10.50712 | -84.67305 | 17585 ft | 385 kts | 322° |
| 2026-05-05 21:40 | 10.52829 | -84.68996 | 18105 ft | 389 kts | 322° |
| 2026-05-05 21:41 | 10.54964 | -84.70702 | 18671 ft | 392 kts | 322° |
| 2026-05-05 21:41 | 10.57119 | -84.72424 | 19200 ft | 395 kts | 322° |
| 2026-05-05 21:41 | 10.59290 | -84.74162 | 19714 ft | 399 kts | 322° |
| 2026-05-05 21:41 | 10.61485 | -84.75916 | 20217 ft | 402 kts | 322° |
| 2026-05-05 21:42 | 10.63691 | -84.77679 | 20689 ft | 405 kts | 322° |
| 2026-05-05 21:42 | 10.65923 | -84.79461 | 21166 ft | 408 kts | 322° |
| 2026-05-05 21:42 | 10.68110 | -84.81270 | 21629 ft | 412 kts | 319° |
| 2026-05-05 21:42 | 10.70185 | -84.83294 | 22073 ft | 415 kts | 317° |
| 2026-05-05 21:43 | 10.72270 | -84.85343 | 22500 ft | 418 kts | 317° |
| 2026-05-05 21:43 | 10.74369 | -84.87397 | 22933 ft | 421 kts | 317° |
| 2026-05-05 21:43 | 10.76487 | -84.89468 | 23341 ft | 424 kts | 317° |
| 2026-05-05 21:43 | 10.78626 | -84.91561 | 23758 ft | 427 kts | 317° |
| 2026-05-05 21:44 | 10.80771 | -84.93662 | 24148 ft | 430 kts | 317° |
| 2026-05-05 21:44 | 10.82931 | -84.95780 | 24541 ft | 432 kts | 317° |
| 2026-05-05 21:44 | 10.85100 | -84.97907 | 24943 ft | 434 kts | 317° |
| 2026-05-05 21:44 | 10.87283 | -85.00050 | 25292 ft | 437 kts | 317° |
| 2026-05-05 21:45 | 10.89476 | -85.02203 | 25646 ft | 439 kts | 317° |
| 2026-05-05 21:45 | 10.91678 | -85.04363 | 25986 ft | 441 kts | 317° |
| 2026-05-05 21:45 | 10.93892 | -85.06536 | 26341 ft | 443 kts | 317° |
| 2026-05-05 21:45 | 10.96089 | -85.08695 | 26662 ft | 445 kts | 317° |
| 2026-05-05 21:46 | 10.98322 | -85.10888 | 26998 ft | 448 kts | 317° |
| 2026-05-05 21:46 | 11.00570 | -85.13097 | 27322 ft | 450 kts | 317° |
| 2026-05-05 21:46 | 11.02807 | -85.15329 | 27628 ft | 452 kts | 314° |
| 2026-05-05 21:46 | 11.04846 | -85.17776 | 27906 ft | 454 kts | 307° |
| 2026-05-05 21:47 | 11.06606 | -85.20459 | 28178 ft | 457 kts | 301° |
| 2026-05-05 21:47 | 11.08150 | -85.23298 | 28464 ft | 459 kts | 300° |
| 2026-05-05 21:47 | 11.09696 | -85.26144 | 28743 ft | 460 kts | 300° |
| 2026-05-05 21:47 | 11.11254 | -85.28999 | 29031 ft | 462 kts | 300° |
| 2026-05-05 21:48 | 11.12821 | -85.31867 | 29291 ft | 464 kts | 300° |
| 2026-05-05 21:48 | 11.14393 | -85.34742 | 29560 ft | 465 kts | 300° |
| 2026-05-05 21:48 | 11.15969 | -85.37629 | 29814 ft | 467 kts | 300° |
| 2026-05-05 21:48 | 11.17552 | -85.40529 | 30097 ft | 469 kts | 300° |
| 2026-05-05 21:49 | 11.19117 | -85.43402 | 30363 ft | 470 kts | 299° |
| 2026-05-05 21:49 | 11.20706 | -85.46321 | 30610 ft | 472 kts | 299° |
| 2026-05-05 21:49 | 11.22305 | -85.49257 | 30853 ft | 474 kts | 299° |
| 2026-05-05 21:49 | 11.23906 | -85.52198 | 31165 ft | 474 kts | 299° |
| 2026-05-05 21:50 | 11.25506 | -85.55137 | 31498 ft | 473 kts | 299° |
| 2026-05-05 21:50 | 11.27103 | -85.58074 | 31854 ft | 473 kts | 299° |
| 2026-05-05 21:50 | 11.28694 | -85.60998 | 32178 ft | 472 kts | 299° |
| 2026-05-05 21:50 | 11.30283 | -85.63919 | 32505 ft | 471 kts | 299° |
| 2026-05-05 21:51 | 11.31871 | -85.66838 | 32807 ft | 470 kts | 299° |
| 2026-05-05 21:51 | 11.33454 | -85.69752 | 33105 ft | 470 kts | 299° |
| 2026-05-05 21:51 | 11.35034 | -85.72657 | 33396 ft | 469 kts | 299° |
| 2026-05-05 21:51 | 11.36611 | -85.75561 | 33694 ft | 468 kts | 299° |
| 2026-05-05 21:52 | 11.39757 | -85.81354 | 33842 ft | 465 kts | 299° |
| 2026-05-05 21:52 | 11.41322 | -85.84237 | 33841 ft | 465 kts | 299° |
| 2026-05-05 21:53 | 11.44434 | -85.89975 | 33842 ft | 465 kts | 299° |
| 2026-05-05 21:53 | 11.47568 | -85.95756 | 33842 ft | 465 kts | 299° |
| 2026-05-05 21:54 | 11.50698 | -86.01530 | 33841 ft | 465 kts | 299° |
| 2026-05-05 21:54 | 11.53826 | -86.07310 | 33835 ft | 465 kts | 299° |
| 2026-05-05 21:55 | 11.56955 | -86.13089 | 33829 ft | 465 kts | 299° |
| 2026-05-05 21:55 | 11.60078 | -86.18863 | 33826 ft | 464 kts | 299° |
| 2026-05-05 21:56 | 11.63194 | -86.24625 | 33822 ft | 464 kts | 299° |
| 2026-05-05 21:56 | 11.66306 | -86.30386 | 33820 ft | 464 kts | 299° |
| 2026-05-05 21:57 | 11.69416 | -86.36147 | 33821 ft | 463 kts | 299° |
| 2026-05-05 21:57 | 11.72512 | -86.41882 | 33824 ft | 464 kts | 299° |
| 2026-05-05 21:58 | 11.75120 | -86.46719 | 33822 ft | 464 kts | 299° |
| 2026-05-05 21:58 | 11.78739 | -86.53434 | 33823 ft | 464 kts | 299° |
| 2026-05-05 21:59 | 11.81852 | -86.59211 | 33826 ft | 464 kts | 299° |
| 2026-05-05 21:59 | 11.84965 | -86.64993 | 33829 ft | 464 kts | 299° |
| 2026-05-05 22:00 | 11.88054 | -86.70737 | 33829 ft | 465 kts | 299° |
| 2026-05-05 22:00 | 11.91173 | -86.76537 | 33837 ft | 465 kts | 299° |
| 2026-05-05 22:01 | 11.94286 | -86.82329 | 33839 ft | 465 kts | 299° |
| 2026-05-05 22:01 | 11.97401 | -86.88129 | 33844 ft | 466 kts | 299° |
| 2026-05-05 22:02 | 12.00492 | -86.93887 | 33845 ft | 466 kts | 299° |
| 2026-05-05 22:02 | 12.03603 | -86.99690 | 33852 ft | 465 kts | 299° |
| 2026-05-05 22:03 | 12.06718 | -87.05499 | 33853 ft | 465 kts | 299° |
| 2026-05-05 22:03 | 12.09827 | -87.11303 | 33861 ft | 465 kts | 299° |
| 2026-05-05 22:04 | 12.12930 | -87.17101 | 33860 ft | 465 kts | 299° |
| 2026-05-05 22:04 | 12.16037 | -87.22907 | 33827 ft | 465 kts | 299° |
| 2026-05-05 22:05 | 12.19134 | -87.28700 | 33834 ft | 464 kts | 299° |
| 2026-05-05 22:05 | 12.22228 | -87.34490 | 33833 ft | 464 kts | 299° |
| 2026-05-05 22:06 | 12.25320 | -87.40277 | 33830 ft | 463 kts | 299° |
| 2026-05-05 22:06 | 12.28384 | -87.46019 | 33824 ft | 463 kts | 299° |
| 2026-05-05 22:07 | 12.31472 | -87.51811 | 33823 ft | 463 kts | 299° |
| 2026-05-05 22:07 | 12.34558 | -87.57600 | 33814 ft | 463 kts | 299° |
| 2026-05-05 22:08 | 12.37643 | -87.63387 | 33814 ft | 463 kts | 299° |
| 2026-05-05 22:08 | 12.40707 | -87.69144 | 33818 ft | 464 kts | 299° |
| 2026-05-05 22:09 | 12.43794 | -87.74945 | 33821 ft | 464 kts | 299° |
| 2026-05-05 22:09 | 12.46878 | -87.80743 | 33812 ft | 464 kts | 299° |
| 2026-05-05 22:10 | 12.49966 | -87.86552 | 33765 ft | 464 kts | 299° |
| 2026-05-05 22:10 | 12.51507 | -87.89455 | 33536 ft | 464 kts | 299° |
| 2026-05-05 22:10 | 12.53047 | -87.92355 | 33281 ft | 464 kts | 299° |
| 2026-05-05 22:10 | 12.54589 | -87.95260 | 32835 ft | 465 kts | 299° |
| 2026-05-05 22:11 | 12.56258 | -87.98109 | 32042 ft | 469 kts | 305° |
| 2026-05-05 22:11 | 12.58249 | -88.00773 | 31049 ft | 473 kts | 310° |
| 2026-05-05 22:11 | 12.60339 | -88.03374 | 30382 ft | 470 kts | 310° |
| 2026-05-05 22:11 | 12.62366 | -88.05913 | 29972 ft | 461 kts | 310° |
| 2026-05-05 22:12 | 12.64388 | -88.08449 | 29450 ft | 457 kts | 310° |
| 2026-05-05 22:12 | 12.66391 | -88.10966 | 28872 ft | 453 kts | 310° |
| 2026-05-05 22:12 | 12.68368 | -88.13452 | 28330 ft | 448 kts | 310° |
| 2026-05-05 22:12 | 12.70323 | -88.15911 | 27765 ft | 443 kts | 310° |
| 2026-05-05 22:13 | 12.72257 | -88.18344 | 27241 ft | 438 kts | 310° |
| 2026-05-05 22:13 | 12.74168 | -88.20750 | 26709 ft | 433 kts | 310° |
| 2026-05-05 22:13 | 12.75423 | -88.22331 | 26361 ft | 430 kts | 310° |
| 2026-05-05 22:13 | 12.77298 | -88.24692 | 25838 ft | 425 kts | 310° |
| 2026-05-05 22:14 | 12.79161 | -88.27039 | 25152 ft | 424 kts | 310° |
| 2026-05-05 22:14 | 12.81040 | -88.29403 | 24117 ft | 432 kts | 310° |
| 2026-05-05 22:14 | 12.82942 | -88.31799 | 23391 ft | 433 kts | 310° |
| 2026-05-05 22:14 | 12.84823 | -88.34170 | 22964 ft | 424 kts | 310° |
| 2026-05-05 22:15 | 12.86672 | -88.36502 | 22557 ft | 420 kts | 310° |
| 2026-05-05 22:15 | 12.88512 | -88.38819 | 22253 ft | 419 kts | 310° |
| 2026-05-05 22:15 | 12.90357 | -88.41144 | 21999 ft | 420 kts | 310° |
| 2026-05-05 22:15 | 12.92203 | -88.43471 | 21471 ft | 422 kts | 310° |
| 2026-05-05 22:16 | 12.94061 | -88.45815 | 20643 ft | 426 kts | 310° |
| 2026-05-05 22:16 | 12.95940 | -88.48185 | 19726 ft | 430 kts | 310° |
| 2026-05-05 22:16 | 12.97797 | -88.50528 | 19047 ft | 426 kts | 310° |
| 2026-05-05 22:16 | 12.99653 | -88.52873 | 18417 ft | 421 kts | 310° |
| 2026-05-05 22:17 | 13.01494 | -88.55201 | 17758 ft | 417 kts | 310° |
| 2026-05-05 22:17 | 13.03310 | -88.57495 | 17109 ft | 413 kts | 310° |
| 2026-05-05 22:17 | 13.05114 | -88.59773 | 16461 ft | 408 kts | 310° |
| 2026-05-05 22:17 | 13.06894 | -88.62023 | 15829 ft | 403 kts | 310° |
| 2026-05-05 22:18 | 13.08654 | -88.64246 | 15174 ft | 400 kts | 310° |
| 2026-05-05 22:18 | 13.10397 | -88.66449 | 14532 ft | 396 kts | 310° |
| 2026-05-05 22:18 | 13.12122 | -88.68629 | 13909 ft | 392 kts | 310° |
| 2026-05-05 22:18 | 13.13831 | -88.70790 | 13292 ft | 388 kts | 310° |
| 2026-05-05 22:19 | 13.15523 | -88.72932 | 12689 ft | 384 kts | 310° |
| 2026-05-05 22:19 | 13.17199 | -88.75055 | 12072 ft | 380 kts | 310° |
| 2026-05-05 22:19 | 13.18856 | -88.77153 | 11464 ft | 377 kts | 309° |
| 2026-05-05 22:19 | 13.20595 | -88.79146 | 10812 ft | 373 kts | 320° |
| 2026-05-05 22:20 | 13.22782 | -88.80492 | 10471 ft | 360 kts | 339° |
| 2026-05-05 22:20 | 13.25070 | -88.81339 | 10262 ft | 339 kts | 341° |
| 2026-05-05 22:20 | 13.27202 | -88.82123 | 10065 ft | 319 kts | 341° |
| 2026-05-05 22:20 | 13.29237 | -88.82869 | 9767 ft | 304 kts | 341° |
| 2026-05-05 22:21 | 13.31213 | -88.83593 | 9168 ft | 301 kts | 341° |
| 2026-05-05 22:21 | 13.33184 | -88.84314 | 8484 ft | 300 kts | 341° |
| 2026-05-05 22:21 | 13.35148 | -88.85032 | 7862 ft | 297 kts | 341° |
| 2026-05-05 22:21 | 13.37087 | -88.85742 | 7299 ft | 294 kts | 341° |
| 2026-05-05 22:22 | 13.39005 | -88.86447 | 6708 ft | 291 kts | 341° |
| 2026-05-05 22:22 | 13.40908 | -88.87146 | 6101 ft | 289 kts | 341° |
| 2026-05-05 22:22 | 13.42793 | -88.87835 | 5501 ft | 287 kts | 341° |
| 2026-05-05 22:22 | 13.44642 | -88.88510 | 5201 ft | 273 kts | 341° |
| 2026-05-05 22:23 | 13.46374 | -88.89146 | 5044 ft | 256 kts | 341° |
| 2026-05-05 22:23 | 13.47860 | -88.89982 | 4870 ft | 242 kts | 316° |
| 2026-05-05 22:23 | 13.48751 | -88.91402 | 4469 ft | 238 kts | 285° |
| 2026-05-05 22:23 | 13.48808 | -88.93074 | 3982 ft | 236 kts | 255° |
| 2026-05-05 22:24 | 13.48268 | -88.94667 | 3543 ft | 235 kts | 246° |
| 2026-05-05 22:24 | 13.47613 | -88.96204 | 3134 ft | 234 kts | 246° |
| 2026-05-05 22:24 | 13.46969 | -88.97730 | 2717 ft | 232 kts | 246° |
| 2026-05-05 22:24 | 13.46640 | -88.99317 | 2367 ft | 227 kts | 275° |
| 2026-05-05 22:25 | 13.47177 | -89.00844 | 2107 ft | 231 kts | 307° |
| 2026-05-05 22:25 | 13.48439 | -89.01827 | 2014 ft | 230 kts | 340° |
| 2026-05-05 22:25 | 13.49956 | -89.01946 | 2000 ft | 213 kts | 15° |
| 2026-05-05 22:25 | 13.51218 | -89.01245 | 2022 ft | 210 kts | 43° |
| 2026-05-05 22:26 | 13.52091 | -89.00049 | 2021 ft | 210 kts | 67° |
| 2026-05-05 22:26 | 13.52549 | -88.98629 | 2016 ft | 210 kts | 73° |
| 2026-05-05 22:26 | 13.53010 | -88.97239 | 2028 ft | 207 kts | 71° |
| 2026-05-05 22:26 | 13.53503 | -88.95848 | 2036 ft | 209 kts | 72° |
| 2026-05-05 22:27 | 13.53673 | -88.94384 | 2035 ft | 207 kts | 101° |
| 2026-05-05 22:27 | 13.53129 | -88.93035 | 2042 ft | 205 kts | 130° |
| 2026-05-05 22:27 | 13.52019 | -88.92150 | 2039 ft | 203 kts | 160° |
| 2026-05-05 22:27 | 13.50640 | -88.91930 | 2032 ft | 202 kts | 188° |
| 2026-05-05 22:28 | 13.49336 | -88.92415 | 2033 ft | 202 kts | 217° |
| 2026-05-05 22:28 | 13.48446 | -88.93521 | 2025 ft | 205 kts | 243° |
| 2026-05-05 22:28 | 13.47888 | -88.94867 | 2007 ft | 204 kts | 250° |
| 2026-05-05 22:28 | 13.47424 | -88.96211 | 1824 ft | 191 kts | 250° |
| 2026-05-05 22:29 | 13.46981 | -88.97451 | 1528 ft | 176 kts | 250° |
| 2026-05-05 22:29 | 13.46586 | -88.98566 | 1285 ft | 157 kts | 249° |
| 2026-05-05 22:29 | 13.46231 | -88.99567 | 1067 ft | 142 kts | 249° |
| 2026-05-05 22:29 | 13.45916 | -89.00496 | 839 ft | 133 kts | 250° |
| 2026-05-05 22:30 | 13.45596 | -89.01400 | 687 ft | 137 kts | 249° |
| 2026-05-05 22:30 | 13.45265 | -89.02318 | 493 ft | 138 kts | 249° |
| 2026-05-05 22:30 | 13.44934 | -89.03233 | 312 ft | 136 kts | 249° |
| 2026-05-05 22:30 | 13.44605 | -89.04140 | 143 ft | 136 kts | 250° |
| 2026-05-05 22:31 | 13.44293 | -89.04998 | 97 ft | 104 kts | 250° |
| 2026-05-05 22:31 | 13.44139 | -89.05440 | 93 ft | 45 kts | 249° |
| 2026-05-05 22:31 | 13.44047 | -89.05700 | 90 ft | 25 kts | 250° |
| 2026-05-05 22:31 | 13.44028 | -89.05833 | 92 ft | 16 kts | 307° |
| 2026-05-05 22:32 | 13.44107 | -89.05868 | 92 ft | 11 kts | 346° |
| 2026-05-05 22:32 | 13.44168 | -89.05892 | 92 ft | 7 kts | 336° |
| 2026-05-05 22:32 | 13.44206 | -89.05909 | 91 ft | 7 kts | 339° |
| 2026-05-05 22:32 | 13.44252 | -89.05888 | 92 ft | 9 kts | 45° |
| 2026-05-05 22:33 | 13.44278 | -89.05832 | 93 ft | 10 kts | 67° |
| 2026-05-05 22:33 | 13.44302 | -89.05782 | 91 ft | 5 kts | 36° |
| 2026-05-05 22:33 | 13.44333 | -89.05784 | 91 ft | 3 kts | 341° |
| 2026-05-05 22:33 | 13.44361 | -89.05795 | 91 ft | 2 kts | 339° |
| 2026-05-05 22:34 | 13.44380 | -89.05803 | 91 ft | 0 kts | 340° |
| 2026-05-05 22:34 | 13.44385 | -89.05804 | 93 ft | 0 kts | 340° |